createdAt,value
2022-08-20T00:00:26.698Z,13.10
2022-08-20T00:03:32.542Z,11.20
2022-08-20T00:06:35.649Z,11.30
2022-08-20T00:09:38.819Z,9.20
2022-08-20T00:12:47.277Z,13.70
2022-08-20T00:15:50.811Z,15.87
2022-08-20T00:18:54.024Z,11.10
2022-08-20T00:21:58.320Z,11.73
2022-08-20T00:25:01.629Z,13.87
2022-08-20T00:28:07.609Z,10.80
2022-08-20T00:31:13.621Z,11.57
2022-08-20T00:34:16.889Z,11.87
2022-08-20T00:37:19.944Z,11.80
2022-08-20T00:40:26.737Z,12.57
2022-08-20T00:43:36.754Z,12.30
2022-08-20T00:46:42.281Z,13.73
2022-08-20T00:49:45.775Z,12.23
2022-08-20T00:52:52.043Z,12.83
2022-08-20T00:55:55.758Z,11.77
2022-08-20T00:59:01.129Z,11.90
2022-08-20T01:02:06.012Z,10.90
2022-08-20T01:05:10.889Z,10.63
2022-08-20T01:08:16.719Z,12.80
2022-08-20T01:11:22.470Z,11.83
2022-08-20T01:14:32.189Z,11.77
2022-08-20T01:17:41.773Z,12.30
2022-08-20T01:20:50.565Z,11.80
2022-08-20T01:24:04.193Z,9.17
2022-08-20T01:27:09.817Z,10.30
2022-08-20T01:30:13.277Z,10.43
2022-08-20T01:33:18.116Z,11.53
2022-08-20T01:36:26.454Z,10.17
2022-08-20T01:39:32.795Z,10.63
2022-08-20T01:42:58.776Z,9.90
2022-08-20T01:46:04.099Z,11.10
2022-08-20T01:49:13.535Z,10.77
2022-08-20T01:52:38.416Z,10.13
2022-08-20T01:55:41.540Z,10.17
2022-08-20T01:58:56.070Z,9.47
2022-08-20T02:02:02.889Z,11.17
2022-08-20T02:05:06.610Z,9.87
2022-08-20T02:08:09.796Z,10.40
2022-08-20T02:11:13.073Z,9.80
2022-08-20T02:14:18.007Z,11.70
2022-08-20T02:17:22.859Z,13.70
2022-08-20T02:20:31.991Z,10.27
2022-08-20T02:23:36.022Z,9.83
2022-08-20T02:26:39.960Z,9.37
2022-08-20T02:29:44.720Z,11.03
2022-08-20T02:32:48.344Z,8.57
2022-08-20T02:35:51.734Z,9.30
2022-08-20T02:38:55.208Z,9.33
2022-08-20T02:41:58.418Z,8.93
2022-08-20T02:45:06.127Z,9.60
2022-08-20T02:48:09.256Z,11.30
2022-08-20T02:51:12.498Z,10.33
2022-08-20T02:54:15.902Z,11.13
2022-08-20T02:57:21.448Z,10.70
2022-08-20T03:00:26.159Z,10.07
2022-08-20T03:03:29.430Z,9.00
2022-08-20T03:06:32.601Z,9.43
2022-08-20T03:09:35.776Z,10.10
2022-08-20T03:12:39.104Z,10.07
2022-08-20T03:15:47.626Z,11.70
2022-08-20T03:18:52.169Z,13.97
2022-08-20T03:21:55.444Z,12.70
2022-08-20T03:24:58.481Z,10.60
2022-08-20T03:28:01.866Z,10.83
2022-08-20T03:31:07.741Z,10.00
2022-08-20T03:34:10.980Z,10.60
2022-08-20T03:37:14.139Z,9.53
2022-08-20T03:40:20.486Z,10.40
2022-08-20T03:43:23.697Z,12.30
2022-08-20T03:46:29.072Z,10.70
2022-08-20T03:49:32.198Z,10.43
2022-08-20T03:52:36.255Z,11.00
2022-08-20T03:55:40.662Z,11.73
2022-08-20T03:58:43.801Z,10.27
2022-08-20T04:01:48.342Z,10.40
2022-08-20T04:04:51.549Z,10.87
2022-08-20T04:07:54.877Z,10.50
2022-08-20T04:11:00.396Z,10.70
2022-08-20T04:14:03.485Z,10.60
2022-08-20T04:17:12.332Z,9.80
2022-08-20T04:20:19.185Z,11.13
2022-08-20T04:23:23.279Z,11.53
2022-08-20T04:26:26.780Z,11.30
2022-08-20T04:29:32.501Z,21.83
2022-08-20T04:32:37.242Z,15.77
2022-08-20T04:35:41.420Z,29.23
2022-08-20T04:38:49.706Z,26.10
2022-08-20T04:41:54.171Z,22.67
2022-08-20T04:44:57.245Z,17.53
2022-08-20T04:48:05.517Z,29.20
2022-08-20T04:51:09.886Z,15.57
2022-08-20T04:54:14.509Z,12.43
2022-08-20T04:57:17.570Z,13.27
2022-08-20T05:00:20.802Z,12.03
2022-08-20T05:03:25.440Z,12.57
2022-08-20T05:06:31.148Z,14.83
2022-08-20T05:09:43.879Z,12.10
2022-08-20T05:12:56.489Z,16.73
2022-08-20T05:16:04.831Z,17.90
2022-08-20T05:19:11.443Z,19.63
2022-08-20T05:22:14.553Z,18.03
2022-08-20T05:25:17.634Z,18.00
2022-08-20T05:28:23.327Z,20.37
2022-08-20T05:31:31.648Z,18.00
2022-08-20T05:34:37.536Z,13.83
2022-08-20T05:37:42.219Z,21.83
2022-08-20T05:40:46.515Z,15.87
2022-08-20T05:43:51.640Z,13.20
2022-08-20T05:46:54.714Z,17.73
2022-08-20T05:49:59.203Z,12.30
2022-08-20T05:53:02.478Z,13.20
2022-08-20T05:56:05.706Z,13.70
2022-08-20T05:59:10.560Z,11.50
2022-08-20T06:02:27.455Z,12.03
2022-08-20T06:05:31.943Z,12.20
2022-08-20T06:08:35.247Z,11.30
2022-08-20T06:11:38.321Z,11.97
2022-08-20T06:14:41.386Z,12.93
2022-08-20T06:17:44.506Z,19.77
2022-08-20T06:21:02.486Z,13.33
2022-08-20T06:24:06.791Z,15.07
2022-08-20T06:27:09.866Z,16.53
2022-08-20T06:30:16.146Z,12.27
2022-08-20T06:33:19.264Z,17.80
2022-08-20T06:36:23.827Z,12.30
2022-08-20T06:39:28.778Z,12.87
2022-08-20T06:42:31.828Z,12.23
2022-08-20T06:45:36.158Z,15.23
2022-08-20T06:48:39.252Z,14.17
2022-08-20T06:51:43.723Z,14.57
2022-08-20T06:54:47.407Z,13.70
2022-08-20T06:57:58.167Z,16.10
2022-08-20T07:01:08.691Z,17.20
2022-08-20T07:04:12.779Z,15.97
2022-08-20T07:07:20.702Z,13.53
2022-08-20T07:10:25.815Z,14.13
2022-08-20T07:13:29.075Z,15.23
2022-08-20T07:16:32.977Z,13.90
2022-08-20T07:19:37.945Z,14.07
2022-08-20T07:22:42.556Z,16.80
2022-08-20T07:25:46.579Z,16.60
2022-08-20T07:28:49.775Z,18.53
2022-08-20T07:32:10.277Z,19.43
2022-08-20T07:35:15.207Z,18.57
2022-08-20T07:38:24.366Z,20.57
2022-08-20T07:41:27.435Z,22.00
2022-08-20T07:44:31.325Z,19.70
2022-08-20T07:47:36.175Z,19.97
2022-08-20T07:50:39.723Z,20.20
2022-08-20T07:53:44.463Z,19.00
2022-08-20T07:56:49.607Z,18.40
2022-08-20T07:59:52.727Z,19.83
2022-08-20T08:02:55.906Z,18.33
2022-08-20T08:05:59.373Z,21.60
2022-08-20T08:09:06.748Z,23.00
2022-08-20T08:12:09.987Z,24.60
2022-08-20T08:15:18.038Z,26.17
2022-08-20T08:18:27.718Z,26.27
2022-08-20T08:21:33.351Z,28.97
2022-08-20T08:24:37.828Z,28.67
2022-08-20T08:27:41.178Z,29.53
2022-08-20T08:30:45.689Z,31.90
2022-08-20T08:33:48.878Z,30.33
2022-08-20T08:36:52.325Z,29.77
2022-08-20T08:39:56.842Z,33.93
2022-08-20T08:43:04.134Z,35.60
2022-08-20T08:46:10.594Z,40.20
2022-08-20T08:49:17.651Z,43.57
2022-08-20T08:52:23.554Z,57.30
2022-08-20T08:55:30.848Z,68.10
2022-08-20T08:58:35.409Z,77.80
2022-08-20T09:01:54.210Z,126.60
2022-08-20T09:05:01.577Z,252.80
2022-08-20T09:08:06.855Z,401.23
2022-08-20T09:11:11.297Z,368.80
2022-08-20T09:14:14.518Z,300.30
2022-08-20T09:17:19.228Z,287.83
2022-08-20T09:20:23.005Z,248.87
2022-08-20T09:23:29.999Z,214.87
2022-08-20T09:26:38.591Z,193.67
2022-08-20T09:29:42.342Z,380.40
2022-08-20T09:32:46.593Z,339.23
2022-08-20T09:35:49.709Z,283.67
2022-08-20T09:38:52.803Z,255.17
2022-08-20T09:41:57.318Z,201.30
2022-08-20T09:45:01.662Z,168.70
2022-08-20T09:48:05.341Z,162.47
2022-08-20T09:51:13.773Z,19.30
2022-08-20T09:54:16.827Z,86.63
2022-08-20T09:57:21.562Z,227.60
2022-08-20T10:00:24.640Z,201.00
2022-08-20T10:03:27.766Z,143.53
2022-08-20T10:06:34.487Z,111.13
2022-08-20T10:09:40.307Z,103.27
2022-08-20T10:12:46.033Z,85.83
2022-08-20T10:15:49.129Z,82.50
2022-08-20T10:18:52.983Z,153.47
2022-08-20T10:21:56.171Z,187.60
2022-08-20T10:24:59.287Z,156.53
2022-08-20T10:28:04.091Z,98.47
2022-08-20T10:31:08.125Z,91.80
2022-08-20T10:34:11.290Z,68.90
2022-08-20T10:37:17.082Z,57.60
2022-08-20T10:40:20.207Z,52.50
2022-08-20T10:43:24.715Z,34.07
2022-08-20T10:46:27.773Z,39.50
2022-08-20T10:49:35.299Z,34.53
2022-08-20T10:52:38.839Z,43.13
2022-08-20T10:55:42.073Z,36.43
2022-08-20T10:58:46.521Z,32.77
2022-08-20T11:01:49.616Z,29.20
2022-08-20T11:04:53.838Z,31.33
2022-08-20T11:07:57.763Z,25.20
2022-08-20T11:11:00.826Z,28.17
2022-08-20T11:14:05.383Z,22.40
2022-08-20T11:17:09.325Z,19.87
2022-08-20T11:20:13.801Z,18.50
2022-08-20T11:23:16.961Z,19.43
2022-08-20T11:26:23.713Z,20.00
2022-08-20T11:29:32.125Z,17.30
2022-08-20T11:32:37.069Z,18.67
2022-08-20T11:35:48.366Z,17.73
2022-08-20T11:38:51.827Z,20.43
2022-08-20T11:41:55.510Z,19.33
2022-08-20T11:44:59.977Z,18.13
2022-08-20T11:48:03.051Z,16.30
2022-08-20T11:51:06.278Z,17.60
2022-08-20T11:54:09.325Z,16.77
2022-08-20T11:57:14.945Z,17.67
2022-08-20T12:00:30.398Z,22.53
2022-08-20T12:03:36.375Z,18.67
2022-08-20T12:06:39.432Z,15.93
2022-08-20T12:09:50.997Z,17.53
2022-08-20T12:12:54.570Z,21.67
2022-08-20T12:15:59.403Z,21.00
2022-08-20T12:19:02.489Z,16.70
2022-08-20T12:22:24.881Z,14.93
2022-08-20T12:25:28.845Z,16.80
2022-08-20T12:28:32.128Z,15.90
2022-08-20T12:31:36.617Z,16.73
2022-08-20T12:34:42.309Z,25.93
2022-08-20T12:37:47.046Z,16.03
2022-08-20T12:40:50.361Z,15.87
2022-08-20T12:43:53.441Z,17.50
2022-08-20T12:47:09.014Z,16.07
2022-08-20T12:50:14.134Z,15.70
2022-08-20T12:53:17.239Z,15.13
2022-08-20T12:56:20.366Z,16.20
2022-08-20T12:59:25.985Z,16.47
2022-08-20T13:02:30.669Z,15.10
2022-08-20T13:05:35.607Z,17.50
2022-08-20T13:08:38.676Z,15.57
2022-08-20T13:11:41.895Z,15.50
2022-08-20T13:14:45.180Z,14.97
2022-08-20T13:17:53.553Z,15.77
2022-08-20T13:20:56.648Z,15.10
2022-08-20T13:23:59.721Z,16.70
2022-08-20T13:27:07.892Z,16.13
2022-08-20T13:30:13.795Z,16.90
2022-08-20T13:33:18.414Z,23.27
2022-08-20T13:36:21.765Z,19.37
2022-08-20T13:39:25.654Z,21.37
2022-08-20T13:42:28.956Z,25.17
2022-08-20T13:45:32.052Z,26.33
2022-08-20T13:48:36.590Z,21.93
2022-08-20T13:51:40.524Z,20.53
2022-08-20T13:54:43.671Z,26.97
2022-08-20T13:57:47.688Z,22.50
2022-08-20T14:00:51.332Z,21.63
2022-08-20T14:03:55.738Z,21.90
2022-08-20T14:06:59.214Z,17.03
2022-08-20T14:10:05.200Z,16.97
2022-08-20T14:13:11.218Z,20.43
2022-08-20T14:16:25.327Z,19.67
2022-08-20T14:19:32.193Z,19.63
2022-08-20T14:22:36.699Z,18.83
2022-08-20T14:25:39.999Z,19.47
2022-08-20T14:28:43.084Z,18.17
2022-08-20T14:31:46.163Z,20.37
2022-08-20T14:34:50.608Z,18.57
2022-08-20T14:37:55.583Z,18.77
2022-08-20T14:40:58.622Z,18.40
2022-08-20T14:44:01.674Z,19.00
2022-08-20T14:47:13.422Z,18.83
2022-08-20T14:50:20.890Z,16.73
2022-08-20T14:53:25.290Z,17.60
2022-08-20T14:56:28.327Z,17.47
2022-08-20T14:59:31.517Z,16.67
2022-08-20T15:02:34.562Z,18.60
2022-08-20T15:05:39.286Z,18.50
2022-08-20T15:08:43.030Z,17.93
2022-08-20T15:11:46.500Z,13.40
2022-08-20T15:14:49.624Z,14.13
2022-08-20T15:17:55.019Z,14.87
2022-08-20T15:20:59.510Z,17.93
2022-08-20T15:24:02.586Z,15.53
2022-08-20T15:27:17.035Z,13.00
2022-08-20T15:30:23.617Z,14.33
2022-08-20T15:33:26.671Z,12.00
2022-08-20T15:36:31.259Z,10.83
2022-08-20T15:39:34.329Z,12.20
2022-08-20T15:42:37.627Z,13.00
2022-08-20T15:45:40.778Z,13.63
2022-08-20T15:48:47.190Z,13.87
2022-08-20T15:51:52.014Z,15.10
2022-08-20T15:54:56.434Z,15.27
2022-08-20T15:58:05.424Z,15.13
2022-08-20T16:01:24.509Z,16.70
2022-08-20T16:05:04.824Z,15.07
2022-08-20T16:08:33.534Z,14.13
2022-08-20T16:11:50.660Z,13.60
2022-08-20T16:15:00.621Z,13.67
2022-08-20T16:18:08.602Z,13.57
2022-08-20T16:21:16.527Z,14.93
2022-08-20T16:24:22.029Z,13.70
2022-08-20T16:27:31.577Z,13.17
2022-08-20T16:30:42.257Z,13.97
2022-08-20T16:33:55.906Z,14.10
2022-08-20T16:37:06.161Z,13.80
2022-08-20T16:40:23.715Z,12.17
2022-08-20T16:43:33.794Z,12.20
2022-08-20T16:46:43.377Z,13.17
2022-08-20T16:49:51.757Z,13.43
2022-08-20T16:52:54.877Z,14.20
2022-08-20T16:55:59.373Z,12.70
2022-08-20T16:59:07.643Z,12.57
2022-08-20T17:02:12.554Z,13.63
2022-08-20T17:05:15.861Z,12.60
2022-08-20T17:08:24.586Z,11.53
2022-08-20T17:11:33.283Z,12.17
2022-08-20T17:14:50.064Z,11.30
2022-08-20T17:17:55.787Z,14.17
2022-08-20T17:21:02.854Z,11.03
2022-08-20T17:24:16.690Z,11.87
2022-08-20T17:27:38.291Z,12.60
2022-08-20T17:30:41.635Z,11.90
2022-08-20T17:33:46.517Z,12.90
2022-08-20T17:36:54.293Z,12.50
2022-08-20T17:40:08.752Z,12.10
2022-08-20T17:43:26.231Z,12.73
2022-08-20T17:46:31.569Z,11.97
2022-08-20T17:49:38.410Z,11.23
2022-08-20T17:52:47.810Z,11.67
2022-08-20T17:55:54.694Z,11.30
2022-08-20T17:59:05.716Z,10.33
2022-08-20T18:02:11.571Z,10.80
2022-08-20T18:05:20.009Z,11.60
2022-08-20T18:08:40.056Z,9.10
2022-08-20T18:11:46.513Z,9.23
2022-08-20T18:15:01.052Z,10.00
2022-08-20T18:18:19.025Z,12.57
2022-08-20T18:21:32.759Z,11.03
2022-08-20T18:24:44.186Z,8.90
2022-08-20T18:27:49.923Z,6.80
2022-08-20T18:30:57.324Z,6.27
2022-08-20T18:34:12.718Z,6.00
2022-08-20T18:37:26.313Z,9.73
2022-08-20T18:40:33.420Z,7.83
2022-08-20T18:43:36.826Z,4.40
2022-08-20T18:46:54.108Z,9.20
2022-08-20T18:50:02.914Z,14.63
2022-08-20T18:53:16.808Z,5.40
2022-08-20T18:56:31.913Z,7.60
2022-08-20T18:59:42.086Z,4.63
2022-08-20T19:02:57.009Z,6.70
2022-08-20T19:06:12.357Z,6.57
2022-08-20T19:09:27.058Z,9.53
2022-08-20T19:13:15.537Z,5.17
2022-08-20T19:16:23.105Z,7.40
2022-08-20T19:19:30.881Z,8.37
2022-08-20T19:22:37.027Z,6.40
2022-08-20T19:25:51.070Z,5.63
2022-08-20T19:28:56.698Z,6.40
2022-08-20T19:32:00.459Z,4.70
2022-08-20T19:35:07.343Z,7.13
2022-08-20T19:38:17.553Z,7.13
2022-08-20T19:41:31.033Z,5.80
2022-08-20T19:44:41.809Z,8.70
2022-08-20T19:47:55.674Z,7.90
2022-08-20T19:51:07.515Z,6.77
2022-08-20T19:54:21.196Z,9.33
2022-08-20T19:57:26.516Z,6.57
2022-08-20T20:00:38.131Z,6.37
2022-08-20T20:03:41.212Z,4.63
2022-08-20T20:06:48.272Z,5.50
2022-08-20T20:09:54.321Z,6.43
2022-08-20T20:12:57.722Z,5.63
2022-08-20T20:16:03.546Z,5.50
2022-08-20T20:19:26.686Z,8.13
2022-08-20T20:22:33.853Z,6.10
2022-08-20T20:25:43.458Z,5.27
2022-08-20T20:28:49.228Z,7.10
2022-08-20T20:31:56.959Z,6.97
2022-08-20T20:35:02.964Z,7.23
2022-08-20T20:38:10.846Z,7.70
2022-08-20T20:41:24.563Z,8.00
2022-08-20T20:44:33.925Z,4.40
2022-08-20T20:47:39.688Z,6.17
2022-08-20T20:50:42.984Z,5.00
2022-08-20T20:53:54.887Z,5.63
2022-08-20T20:57:00.921Z,6.50
2022-08-20T21:00:06.045Z,6.13
2022-08-20T21:03:09.906Z,4.53
2022-08-20T21:06:13.238Z,6.93
2022-08-20T21:09:18.744Z,5.50
2022-08-20T21:12:22.356Z,5.20
2022-08-20T21:15:26.600Z,5.37
2022-08-20T21:18:30.129Z,6.33
2022-08-20T21:21:33.270Z,5.63
2022-08-20T21:24:37.724Z,4.93
2022-08-20T21:27:45.566Z,4.33
2022-08-20T21:30:48.679Z,6.03
2022-08-20T21:34:01.863Z,3.73
2022-08-20T21:37:05.018Z,5.53
2022-08-20T21:40:12.131Z,4.27
2022-08-20T21:43:15.366Z,4.10
2022-08-20T21:46:25.037Z,5.80
2022-08-20T21:49:30.251Z,6.53
2022-08-20T21:52:33.432Z,3.47
2022-08-20T21:55:40.645Z,4.30
2022-08-20T21:58:44.899Z,5.63
2022-08-20T22:01:47.993Z,4.23
2022-08-20T22:04:51.386Z,3.20
2022-08-20T22:07:56.986Z,2.70
2022-08-20T22:11:02.420Z,3.40
2022-08-20T22:14:08.034Z,3.87
2022-08-20T22:17:11.138Z,4.57
2022-08-20T22:20:14.189Z,3.90
2022-08-20T22:23:17.250Z,3.33
2022-08-20T22:26:22.455Z,3.50
2022-08-20T22:29:30.483Z,4.87
2022-08-20T22:32:51.288Z,4.07
2022-08-20T22:35:57.746Z,6.90
2022-08-20T22:39:00.864Z,4.87
2022-08-20T22:42:05.626Z,6.97
2022-08-20T22:45:13.415Z,5.87
2022-08-20T22:48:19.996Z,6.23
2022-08-20T22:51:28.070Z,5.20
2022-08-20T22:54:31.622Z,5.50
2022-08-20T22:57:36.159Z,5.10
2022-08-20T23:00:39.834Z,4.90
2022-08-20T23:03:42.915Z,6.43
2022-08-20T23:06:46.150Z,7.80
2022-08-20T23:09:49.763Z,5.33
2022-08-20T23:12:55.103Z,4.80
2022-08-20T23:15:58.294Z,4.40
2022-08-20T23:19:01.817Z,4.30
2022-08-20T23:22:05.113Z,4.93
2022-08-20T23:25:10.335Z,4.17
2022-08-20T23:28:15.064Z,4.57
2022-08-20T23:31:18.170Z,7.60
2022-08-20T23:34:21.285Z,4.80
2022-08-20T23:37:24.553Z,4.77
2022-08-20T23:40:29.328Z,5.20
2022-08-20T23:43:33.841Z,5.33
2022-08-20T23:46:38.182Z,4.80
2022-08-20T23:49:41.212Z,5.03
2022-08-20T23:52:44.564Z,5.50
2022-08-20T23:55:47.715Z,5.10
2022-08-20T23:58:52.283Z,4.57
